sensor_id;sensor_type;location;lat;lon;timestamp;temperature;humidity
45137;DHT22;30894;51.740;19.498;2023-01-15T00:00:51;6.00;99.90
45137;DHT22;30894;51.740;19.498;2023-01-15T00:03:37;6.00;99.90
45137;DHT22;30894;51.740;19.498;2023-01-15T00:06:03;6.10;99.90
45137;DHT22;30894;51.740;19.498;2023-01-15T00:08:29;6.10;99.90
45137;DHT22;30894;51.740;19.498;2023-01-15T00:10:55;6.10;99.90
45137;DHT22;30894;51.740;19.498;2023-01-15T00:13:22;6.20;99.90
45137;DHT22;30894;51.740;19.498;2023-01-15T00:15:49;6.20;99.90
45137;DHT22;30894;51.740;19.498;2023-01-15T00:18:15;6.20;99.90
45137;DHT22;30894;51.740;19.498;2023-01-15T00:20:58;6.20;99.90
45137;DHT22;30894;51.740;19.498;2023-01-15T00:23:31;6.20;99.90
45137;DHT22;30894;51.740;19.498;2023-01-15T00:26:27;6.20;99.90
45137;DHT22;30894;51.740;19.498;2023-01-15T00:29:20;6.20;99.90
45137;DHT22;30894;51.740;19.498;2023-01-15T00:31:56;6.20;99.90
45137;DHT22;30894;51.740;19.498;2023-01-15T00:34:28;6.30;99.90
45137;DHT22;30894;51.740;19.498;2023-01-15T00:36:56;6.20;99.90
45137;DHT22;30894;51.740;19.498;2023-01-15T00:39:23;6.20;99.90
45137;DHT22;30894;51.740;19.498;2023-01-15T00:41:49;6.10;99.90
45137;DHT22;30894;51.740;19.498;2023-01-15T00:44:16;6.10;99.90
45137;DHT22;30894;51.740;19.498;2023-01-15T00:46:46;6.10;99.90
45137;DHT22;30894;51.740;19.498;2023-01-15T00:49:13;6.10;99.90
45137;DHT22;30894;51.740;19.498;2023-01-15T00:51:39;6.10;99.90
45137;DHT22;30894;51.740;19.498;2023-01-15T00:54:07;6.10;99.90
45137;DHT22;30894;51.740;19.498;2023-01-15T00:56:33;6.10;99.90
45137;DHT22;30894;51.740;19.498;2023-01-15T00:59:03;6.10;99.90
45137;DHT22;30894;51.740;19.498;2023-01-15T01:01:30;6.10;99.90
45137;DHT22;30894;51.740;19.498;2023-01-15T01:03:56;6.10;99.90
45137;DHT22;30894;51.740;19.498;2023-01-15T01:06:23;6.00;99.90
45137;DHT22;30894;51.740;19.498;2023-01-15T01:09:08;6.00;99.90
45137;DHT22;30894;51.740;19.498;2023-01-15T01:11:37;5.90;99.90
45137;DHT22;30894;51.740;19.498;2023-01-15T01:14:07;5.90;99.90
45137;DHT22;30894;51.740;19.498;2023-01-15T01:16:41;5.90;99.90
45137;DHT22;30894;51.740;19.498;2023-01-15T01:19:19;6.00;99.90
45137;DHT22;30894;51.740;19.498;2023-01-15T01:21:48;6.00;99.90
45137;DHT22;30894;51.740;19.498;2023-01-15T01:24:21;6.10;99.90
45137;DHT22;30894;51.740;19.498;2023-01-15T01:26:49;6.20;99.90
45137;DHT22;30894;51.740;19.498;2023-01-15T01:29:18;6.20;99.90
45137;DHT22;30894;51.740;19.498;2023-01-15T01:31:46;6.30;99.90
45137;DHT22;30894;51.740;19.498;2023-01-15T01:34:14;6.30;99.90
45137;DHT22;30894;51.740;19.498;2023-01-15T01:36:42;6.30;99.90
45137;DHT22;30894;51.740;19.498;2023-01-15T01:39:14;6.40;99.90
45137;DHT22;30894;51.740;19.498;2023-01-15T01:41:42;6.40;99.90
45137;DHT22;30894;51.740;19.498;2023-01-15T01:46:58;6.40;99.90
45137;DHT22;30894;51.740;19.498;2023-01-15T01:49:26;6.50;99.90
45137;DHT22;30894;51.740;19.498;2023-01-15T01:52:00;6.50;99.90
45137;DHT22;30894;51.740;19.498;2023-01-15T01:54:30;6.60;99.90
45137;DHT22;30894;51.740;19.498;2023-01-15T01:56:57;6.60;99.90
45137;DHT22;30894;51.740;19.498;2023-01-15T01:59:24;6.60;99.90
45137;DHT22;30894;51.740;19.498;2023-01-15T02:04:54;6.70;99.90
45137;DHT22;30894;51.740;19.498;2023-01-15T02:07:20;6.80;99.90
45137;DHT22;30894;51.740;19.498;2023-01-15T02:09:46;6.80;99.90
45137;DHT22;30894;51.740;19.498;2023-01-15T02:12:19;6.80;99.90
45137;DHT22;30894;51.740;19.498;2023-01-15T02:18:30;6.80;99.90
45137;DHT22;30894;51.740;19.498;2023-01-15T02:20:53;6.80;99.90
45137;DHT22;30894;51.740;19.498;2023-01-15T02:23:57;6.70;99.90
45137;DHT22;30894;51.740;19.498;2023-01-15T02:27:00;6.70;99.90
45137;DHT22;30894;51.740;19.498;2023-01-15T02:30:11;6.70;99.90
45137;DHT22;30894;51.740;19.498;2023-01-15T02:32:51;6.70;99.90
45137;DHT22;30894;51.740;19.498;2023-01-15T02:35:47;6.60;99.90
45137;DHT22;30894;51.740;19.498;2023-01-15T02:38:19;6.50;99.90
45137;DHT22;30894;51.740;19.498;2023-01-15T02:40:47;6.50;99.90
45137;DHT22;30894;51.740;19.498;2023-01-15T02:43:16;6.50;99.90
45137;DHT22;30894;51.740;19.498;2023-01-15T02:45:47;6.60;99.90
45137;DHT22;30894;51.740;19.498;2023-01-15T02:48:17;6.60;99.90
45137;DHT22;30894;51.740;19.498;2023-01-15T02:51:00;6.50;99.90
45137;DHT22;30894;51.740;19.498;2023-01-15T02:53:29;6.40;99.90
45137;DHT22;30894;51.740;19.498;2023-01-15T02:56:03;6.30;99.90
45137;DHT22;30894;51.740;19.498;2023-01-15T02:58:43;6.30;99.90
45137;DHT22;30894;51.740;19.498;2023-01-15T03:01:22;6.20;99.90
45137;DHT22;30894;51.740;19.498;2023-01-15T03:08:02;6.20;99.90
45137;DHT22;30894;51.740;19.498;2023-01-15T03:10:37;6.10;99.90
45137;DHT22;30894;51.740;19.498;2023-01-15T03:13:15;6.10;99.90
45137;DHT22;30894;51.740;19.498;2023-01-15T03:15:51;6.20;99.90
45137;DHT22;30894;51.740;19.498;2023-01-15T03:19:08;6.30;99.90
45137;DHT22;30894;51.740;19.498;2023-01-15T03:24:48;6.40;99.90
45137;DHT22;30894;51.740;19.498;2023-01-15T03:27:16;6.50;99.90
45137;DHT22;30894;51.740;19.498;2023-01-15T03:29:48;6.60;99.90
45137;DHT22;30894;51.740;19.498;2023-01-15T03:32:17;6.60;99.90
45137;DHT22;30894;51.740;19.498;2023-01-15T03:34:50;6.70;99.90
45137;DHT22;30894;51.740;19.498;2023-01-15T03:37:19;6.90;99.90
45137;DHT22;30894;51.740;19.498;2023-01-15T03:40:14;6.90;99.90
45137;DHT22;30894;51.740;19.498;2023-01-15T03:42:55;7.00;99.90
45137;DHT22;30894;51.740;19.498;2023-01-15T03:46:13;7.10;99.90
45137;DHT22;30894;51.740;19.498;2023-01-15T03:48:58;7.10;99.90
45137;DHT22;30894;51.740;19.498;2023-01-15T03:51:43;7.10;99.90
45137;DHT22;30894;51.740;19.498;2023-01-15T03:55:13;7.20;99.90
45137;DHT22;30894;51.740;19.498;2023-01-15T03:57:57;7.20;99.90
45137;DHT22;30894;51.740;19.498;2023-01-15T04:00:59;7.30;99.90
45137;DHT22;30894;51.740;19.498;2023-01-15T04:03:27;7.40;99.90
45137;DHT22;30894;51.740;19.498;2023-01-15T04:09:26;7.40;99.90
45137;DHT22;30894;51.740;19.498;2023-01-15T04:11:52;7.40;99.90
45137;DHT22;30894;51.740;19.498;2023-01-15T04:14:34;7.40;99.90
45137;DHT22;30894;51.740;19.498;2023-01-15T04:17:21;7.50;99.90
45137;DHT22;30894;51.740;19.498;2023-01-15T04:19:48;7.60;99.90
45137;DHT22;30894;51.740;19.498;2023-01-15T04:22:14;7.50;99.90
45137;DHT22;30894;51.740;19.498;2023-01-15T04:24:51;7.50;99.90
45137;DHT22;30894;51.740;19.498;2023-01-15T04:27:38;7.50;99.90
45137;DHT22;30894;51.740;19.498;2023-01-15T04:30:30;7.50;99.90
45137;DHT22;30894;51.740;19.498;2023-01-15T04:32:57;7.50;99.90
45137;DHT22;30894;51.740;19.498;2023-01-15T04:35:24;7.40;99.90
45137;DHT22;30894;51.740;19.498;2023-01-15T04:38:38;7.40;99.90
45137;DHT22;30894;51.740;19.498;2023-01-15T04:41:04;7.40;99.90
45137;DHT22;30894;51.740;19.498;2023-01-15T04:44:01;7.40;99.90
45137;DHT22;30894;51.740;19.498;2023-01-15T04:46:55;7.40;99.90
45137;DHT22;30894;51.740;19.498;2023-01-15T04:49:39;7.40;99.90
45137;DHT22;30894;51.740;19.498;2023-01-15T04:52:05;7.40;99.90
45137;DHT22;30894;51.740;19.498;2023-01-15T04:54:31;7.40;99.90
45137;DHT22;30894;51.740;19.498;2023-01-15T04:56:58;7.50;99.90
45137;DHT22;30894;51.740;19.498;2023-01-15T04:59:29;7.50;99.90
45137;DHT22;30894;51.740;19.498;2023-01-15T05:01:55;7.70;99.90
45137;DHT22;30894;51.740;19.498;2023-01-15T05:04:24;7.70;99.90
45137;DHT22;30894;51.740;19.498;2023-01-15T05:06:50;7.80;99.90
45137;DHT22;30894;51.740;19.498;2023-01-15T05:09:35;7.80;99.90
45137;DHT22;30894;51.740;19.498;2023-01-15T05:12:02;7.90;99.90
45137;DHT22;30894;51.740;19.498;2023-01-15T05:15:08;7.80;99.90
45137;DHT22;30894;51.740;19.498;2023-01-15T05:17:35;7.80;99.90
45137;DHT22;30894;51.740;19.498;2023-01-15T05:20:14;7.60;99.90
45137;DHT22;30894;51.740;19.498;2023-01-15T05:23:06;7.50;99.90
45137;DHT22;30894;51.740;19.498;2023-01-15T05:25:35;7.40;99.90
45137;DHT22;30894;51.740;19.498;2023-01-15T05:28:02;7.30;99.90
45137;DHT22;30894;51.740;19.498;2023-01-15T05:30:28;7.20;99.90
45137;DHT22;30894;51.740;19.498;2023-01-15T05:32:54;7.20;99.90
45137;DHT22;30894;51.740;19.498;2023-01-15T05:35:21;7.10;99.90
45137;DHT22;30894;51.740;19.498;2023-01-15T05:37:57;7.10;99.90
45137;DHT22;30894;51.740;19.498;2023-01-15T05:40:42;7.00;99.90
45137;DHT22;30894;51.740;19.498;2023-01-15T05:43:52;6.90;99.90
45137;DHT22;30894;51.740;19.498;2023-01-15T05:46:18;6.90;99.90
45137;DHT22;30894;51.740;19.498;2023-01-15T05:48:44;6.80;99.90
45137;DHT22;30894;51.740;19.498;2023-01-15T05:51:10;6.80;99.90
45137;DHT22;30894;51.740;19.498;2023-01-15T05:53:38;6.80;99.90
45137;DHT22;30894;51.740;19.498;2023-01-15T05:56:04;6.70;99.90
45137;DHT22;30894;51.740;19.498;2023-01-15T05:58:31;6.80;99.90
45137;DHT22;30894;51.740;19.498;2023-01-15T06:00:57;6.70;99.90
45137;DHT22;30894;51.740;19.498;2023-01-15T06:03:24;6.80;99.90
45137;DHT22;30894;51.740;19.498;2023-01-15T06:05:55;6.80;99.90
45137;DHT22;30894;51.740;19.498;2023-01-15T06:08:22;6.80;99.90
45137;DHT22;30894;51.740;19.498;2023-01-15T06:10:49;6.90;99.90
45137;DHT22;30894;51.740;19.498;2023-01-15T06:13:16;6.90;99.90
45137;DHT22;30894;51.740;19.498;2023-01-15T06:15:43;7.00;99.90
45137;DHT22;30894;51.740;19.498;2023-01-15T06:18:11;7.10;99.90
45137;DHT22;30894;51.740;19.498;2023-01-15T06:20:39;7.20;99.90
45137;DHT22;30894;51.740;19.498;2023-01-15T06:23:07;7.30;99.90
45137;DHT22;30894;51.740;19.498;2023-01-15T06:25:36;7.40;99.90
45137;DHT22;30894;51.740;19.498;2023-01-15T06:28:06;7.40;99.90
45137;DHT22;30894;51.740;19.498;2023-01-15T06:30:34;7.50;99.90
45137;DHT22;30894;51.740;19.498;2023-01-15T06:33:03;7.60;99.90
45137;DHT22;30894;51.740;19.498;2023-01-15T06:35:31;7.70;99.90
45137;DHT22;30894;51.740;19.498;2023-01-15T06:37:58;7.80;99.90
45137;DHT22;30894;51.740;19.498;2023-01-15T06:40:26;7.90;99.90
45137;DHT22;30894;51.740;19.498;2023-01-15T06:42:57;8.10;99.90
45137;DHT22;30894;51.740;19.498;2023-01-15T06:45:43;8.20;99.90
45137;DHT22;30894;51.740;19.498;2023-01-15T06:48:28;8.30;99.90
45137;DHT22;30894;51.740;19.498;2023-01-15T06:50:55;8.30;99.90
45137;DHT22;30894;51.740;19.498;2023-01-15T06:53:22;8.20;99.90
45137;DHT22;30894;51.740;19.498;2023-01-15T06:55:56;8.00;99.90
45137;DHT22;30894;51.740;19.498;2023-01-15T06:58:23;8.00;99.90
45137;DHT22;30894;51.740;19.498;2023-01-15T07:00:56;7.90;99.90
45137;DHT22;30894;51.740;19.498;2023-01-15T07:03:23;7.80;99.90
45137;DHT22;30894;51.740;19.498;2023-01-15T07:05:56;7.70;99.90
45137;DHT22;30894;51.740;19.498;2023-01-15T07:08:26;7.60;99.90
45137;DHT22;30894;51.740;19.498;2023-01-15T07:10:55;7.50;99.90
45137;DHT22;30894;51.740;19.498;2023-01-15T07:13:21;7.50;99.90
45137;DHT22;30894;51.740;19.498;2023-01-15T07:15:50;7.40;99.90
45137;DHT22;30894;51.740;19.498;2023-01-15T07:18:17;7.30;99.90
45137;DHT22;30894;51.740;19.498;2023-01-15T07:20:44;7.30;99.90
45137;DHT22;30894;51.740;19.498;2023-01-15T07:23:15;7.30;99.90
45137;DHT22;30894;51.740;19.498;2023-01-15T07:25:42;7.20;99.90
45137;DHT22;30894;51.740;19.498;2023-01-15T07:28:08;7.20;99.90
45137;DHT22;30894;51.740;19.498;2023-01-15T07:30:38;7.20;99.90
45137;DHT22;30894;51.740;19.498;2023-01-15T07:33:05;7.10;99.90
45137;DHT22;30894;51.740;19.498;2023-01-15T07:35:31;7.10;99.90
45137;DHT22;30894;51.740;19.498;2023-01-15T07:38:00;7.10;99.90
45137;DHT22;30894;51.740;19.498;2023-01-15T07:40:47;7.10;99.90
45137;DHT22;30894;51.740;19.498;2023-01-15T07:43:36;7.00;99.90
45137;DHT22;30894;51.740;19.498;2023-01-15T07:46:22;7.00;99.90
45137;DHT22;30894;51.740;19.498;2023-01-15T07:49:10;7.00;99.90
45137;DHT22;30894;51.740;19.498;2023-01-15T07:52:03;7.00;99.90
45137;DHT22;30894;51.740;19.498;2023-01-15T07:54:32;7.00;99.90
45137;DHT22;30894;51.740;19.498;2023-01-15T07:57:07;6.90;99.90
45137;DHT22;30894;51.740;19.498;2023-01-15T07:59:36;6.90;99.90
45137;DHT22;30894;51.740;19.498;2023-01-15T08:02:05;6.90;99.90
45137;DHT22;30894;51.740;19.498;2023-01-15T08:04:33;6.90;99.90
45137;DHT22;30894;51.740;19.498;2023-01-15T08:07:03;6.90;99.90
45137;DHT22;30894;51.740;19.498;2023-01-15T08:09:29;6.90;99.90
45137;DHT22;30894;51.740;19.498;2023-01-15T08:12:00;6.90;99.90
45137;DHT22;30894;51.740;19.498;2023-01-15T08:14:45;6.80;99.90
45137;DHT22;30894;51.740;19.498;2023-01-15T08:17:35;6.80;99.90
45137;DHT22;30894;51.740;19.498;2023-01-15T08:20:04;6.80;99.90
45137;DHT22;30894;51.740;19.498;2023-01-15T08:22:32;6.80;99.90
45137;DHT22;30894;51.740;19.498;2023-01-15T08:25:10;6.70;99.90
45137;DHT22;30894;51.740;19.498;2023-01-15T08:27:39;6.70;99.90
45137;DHT22;30894;51.740;19.498;2023-01-15T08:30:08;6.70;99.90
45137;DHT22;30894;51.740;19.498;2023-01-15T08:32:37;6.70;99.90
45137;DHT22;30894;51.740;19.498;2023-01-15T08:35:04;6.70;99.90
45137;DHT22;30894;51.740;19.498;2023-01-15T08:37:31;6.60;99.90
45137;DHT22;30894;51.740;19.498;2023-01-15T08:40:10;6.60;99.90
45137;DHT22;30894;51.740;19.498;2023-01-15T08:42:40;6.60;99.90
45137;DHT22;30894;51.740;19.498;2023-01-15T08:45:08;6.60;99.90
45137;DHT22;30894;51.740;19.498;2023-01-15T08:47:36;6.60;99.90
45137;DHT22;30894;51.740;19.498;2023-01-15T08:50:04;6.60;99.90
45137;DHT22;30894;51.740;19.498;2023-01-15T08:52:36;6.60;99.90
45137;DHT22;30894;51.740;19.498;2023-01-15T08:55:07;6.60;99.90
45137;DHT22;30894;51.740;19.498;2023-01-15T08:57:38;6.50;99.90
45137;DHT22;30894;51.740;19.498;2023-01-15T09:00:12;6.50;99.90
45137;DHT22;30894;51.740;19.498;2023-01-15T09:02:40;6.50;99.90
45137;DHT22;30894;51.740;19.498;2023-01-15T09:05:09;6.50;99.90
45137;DHT22;30894;51.740;19.498;2023-01-15T09:07:38;6.50;99.90
45137;DHT22;30894;51.740;19.498;2023-01-15T09:10:08;6.50;99.90
45137;DHT22;30894;51.740;19.498;2023-01-15T09:12:38;6.50;99.90
45137;DHT22;30894;51.740;19.498;2023-01-15T09:15:05;6.50;99.90
45137;DHT22;30894;51.740;19.498;2023-01-15T09:17:32;6.50;99.90
45137;DHT22;30894;51.740;19.498;2023-01-15T09:20:06;6.40;99.90
45137;DHT22;30894;51.740;19.498;2023-01-15T09:22:36;6.40;99.90
45137;DHT22;30894;51.740;19.498;2023-01-15T09:25:03;6.40;99.90
45137;DHT22;30894;51.740;19.498;2023-01-15T09:27:34;6.40;99.90
45137;DHT22;30894;51.740;19.498;2023-01-15T09:30:05;6.30;99.90
45137;DHT22;30894;51.740;19.498;2023-01-15T09:32:35;6.30;99.90
45137;DHT22;30894;51.740;19.498;2023-01-15T09:35:02;6.30;99.90
45137;DHT22;30894;51.740;19.498;2023-01-15T09:37:32;6.30;99.90
45137;DHT22;30894;51.740;19.498;2023-01-15T09:40:00;6.30;99.90
45137;DHT22;30894;51.740;19.498;2023-01-15T09:42:57;6.20;99.90
45137;DHT22;30894;51.740;19.498;2023-01-15T09:46:07;6.20;99.90
45137;DHT22;30894;51.740;19.498;2023-01-15T09:48:58;6.20;99.90
45137;DHT22;30894;51.740;19.498;2023-01-15T09:55:21;6.20;99.90
45137;DHT22;30894;51.740;19.498;2023-01-15T09:57:54;6.20;99.90
45137;DHT22;30894;51.740;19.498;2023-01-15T10:00:44;6.20;99.90
45137;DHT22;30894;51.740;19.498;2023-01-15T10:04:37;6.20;99.90
45137;DHT22;30894;51.740;19.498;2023-01-15T10:12:29;6.20;99.90
45137;DHT22;30894;51.740;19.498;2023-01-15T10:18:38;6.10;99.90
45137;DHT22;30894;51.740;19.498;2023-01-15T10:21:45;6.10;99.90
45137;DHT22;30894;51.740;19.498;2023-01-15T10:24:47;6.10;99.90
45137;DHT22;30894;51.740;19.498;2023-01-15T10:27:36;6.10;99.90
45137;DHT22;30894;51.740;19.498;2023-01-15T10:30:38;6.10;99.90
45137;DHT22;30894;51.740;19.498;2023-01-15T10:33:40;6.10;99.90
45137;DHT22;30894;51.740;19.498;2023-01-15T10:36:37;6.10;99.90
45137;DHT22;30894;51.740;19.498;2023-01-15T10:39:35;6.10;99.90
45137;DHT22;30894;51.740;19.498;2023-01-15T10:45:17;6.10;99.90
45137;DHT22;30894;51.740;19.498;2023-01-15T10:48:17;6.10;99.90
45137;DHT22;30894;51.740;19.498;2023-01-15T11:07:05;6.20;99.90
45137;DHT22;30894;51.740;19.498;2023-01-15T12:06:38;7.50;99.90
45137;DHT22;30894;51.740;19.498;2023-01-15T12:37:13;7.70;99.90
45137;DHT22;30894;51.740;19.498;2023-01-15T12:40:16;7.70;99.90
45137;DHT22;30894;51.740;19.498;2023-01-15T12:42:48;7.80;99.90
45137;DHT22;30894;51.740;19.498;2023-01-15T12:45:59;7.80;99.90
45137;DHT22;30894;51.740;19.498;2023-01-15T12:52:07;7.90;99.90
45137;DHT22;30894;51.740;19.498;2023-01-15T12:55:27;7.90;99.90
45137;DHT22;30894;51.740;19.498;2023-01-15T12:59:06;7.90;99.90
45137;DHT22;30894;51.740;19.498;2023-01-15T13:10:27;7.90;99.90
45137;DHT22;30894;51.740;19.498;2023-01-15T13:13:39;7.90;99.90
45137;DHT22;30894;51.740;19.498;2023-01-15T13:32:20;7.90;99.90
45137;DHT22;30894;51.740;19.498;2023-01-15T13:47:24;7.90;99.90
45137;DHT22;30894;51.740;19.498;2023-01-15T14:36:45;7.80;99.90
45137;DHT22;30894;51.740;19.498;2023-01-15T14:44:36;7.70;99.90
45137;DHT22;30894;51.740;19.498;2023-01-15T14:47:47;7.70;99.90
45137;DHT22;30894;51.740;19.498;2023-01-15T14:51:21;7.60;99.90
45137;DHT22;30894;51.740;19.498;2023-01-15T14:54:21;7.50;99.90
45137;DHT22;30894;51.740;19.498;2023-01-15T14:57:17;7.50;99.90
45137;DHT22;30894;51.740;19.498;2023-01-15T15:00:21;7.40;99.90
45137;DHT22;30894;51.740;19.498;2023-01-15T15:03:42;7.30;99.90
45137;DHT22;30894;51.740;19.498;2023-01-15T15:10:36;7.10;99.90
45137;DHT22;30894;51.740;19.498;2023-01-15T15:13:33;7.00;99.90
45137;DHT22;30894;51.740;19.498;2023-01-15T15:16:21;6.90;99.90
45137;DHT22;30894;51.740;19.498;2023-01-15T15:19:33;6.90;99.90
45137;DHT22;30894;51.740;19.498;2023-01-15T15:22:31;6.90;99.90
45137;DHT22;30894;51.740;19.498;2023-01-15T15:25:22;6.90;99.90
45137;DHT22;30894;51.740;19.498;2023-01-15T15:28:20;6.90;99.90
45137;DHT22;30894;51.740;19.498;2023-01-15T15:32:05;6.90;99.90
45137;DHT22;30894;51.740;19.498;2023-01-15T15:35:02;7.00;99.90
45137;DHT22;30894;51.740;19.498;2023-01-15T15:38:40;7.10;99.90
45137;DHT22;30894;51.740;19.498;2023-01-15T16:14:07;7.00;99.90
45137;DHT22;30894;51.740;19.498;2023-01-15T16:17:02;6.80;99.90
45137;DHT22;30894;51.740;19.498;2023-01-15T16:19:29;6.70;99.90
45137;DHT22;30894;51.740;19.498;2023-01-15T16:21:56;6.70;99.90
45137;DHT22;30894;51.740;19.498;2023-01-15T16:24:27;6.60;99.90
45137;DHT22;30894;51.740;19.498;2023-01-15T16:27:13;6.60;99.90
45137;DHT22;30894;51.740;19.498;2023-01-15T16:29:48;6.50;99.90
45137;DHT22;30894;51.740;19.498;2023-01-15T16:32:20;6.50;99.90
45137;DHT22;30894;51.740;19.498;2023-01-15T16:35:04;6.40;99.90
45137;DHT22;30894;51.740;19.498;2023-01-15T16:38:17;6.30;99.90
45137;DHT22;30894;51.740;19.498;2023-01-15T16:40:45;6.30;99.90
45137;DHT22;30894;51.740;19.498;2023-01-15T16:43:23;6.30;99.90
45137;DHT22;30894;51.740;19.498;2023-01-15T16:46:17;6.20;99.90
45137;DHT22;30894;51.740;19.498;2023-01-15T16:48:45;6.20;99.90
45137;DHT22;30894;51.740;19.498;2023-01-15T16:51:34;6.20;99.90
45137;DHT22;30894;51.740;19.498;2023-01-15T16:54:05;6.20;99.90
45137;DHT22;30894;51.740;19.498;2023-01-15T16:57:36;6.20;99.90
45137;DHT22;30894;51.740;19.498;2023-01-15T17:00:05;6.10;99.90
45137;DHT22;30894;51.740;19.498;2023-01-15T17:02:41;6.20;99.90
45137;DHT22;30894;51.740;19.498;2023-01-15T17:08:33;6.10;99.90
45137;DHT22;30894;51.740;19.498;2023-01-15T17:11:06;6.10;99.90
45137;DHT22;30894;51.740;19.498;2023-01-15T17:14:16;6.00;99.90
45137;DHT22;30894;51.740;19.498;2023-01-15T17:19:50;6.00;99.90
45137;DHT22;30894;51.740;19.498;2023-01-15T17:22:28;6.00;99.90
45137;DHT22;30894;51.740;19.498;2023-01-15T17:24:57;6.00;99.90
45137;DHT22;30894;51.740;19.498;2023-01-15T17:30:45;6.00;99.90
45137;DHT22;30894;51.740;19.498;2023-01-15T17:33:19;6.00;99.90
45137;DHT22;30894;51.740;19.498;2023-01-15T17:36:02;6.00;99.90
45137;DHT22;30894;51.740;19.498;2023-01-15T17:38:35;6.00;99.90
45137;DHT22;30894;51.740;19.498;2023-01-15T17:41:02;5.90;99.90
45137;DHT22;30894;51.740;19.498;2023-01-15T17:43:31;5.90;99.90
45137;DHT22;30894;51.740;19.498;2023-01-15T17:45:57;6.00;99.90
45137;DHT22;30894;51.740;19.498;2023-01-15T17:48:26;5.90;99.90
45137;DHT22;30894;51.740;19.498;2023-01-15T17:51:19;5.90;99.90
45137;DHT22;30894;51.740;19.498;2023-01-15T17:53:49;5.90;99.90
45137;DHT22;30894;51.740;19.498;2023-01-15T17:56:16;5.80;99.90
45137;DHT22;30894;51.740;19.498;2023-01-15T17:59:00;5.80;99.90
45137;DHT22;30894;51.740;19.498;2023-01-15T18:01:47;5.70;99.90
45137;DHT22;30894;51.740;19.498;2023-01-15T18:04:47;5.70;99.90
45137;DHT22;30894;51.740;19.498;2023-01-15T18:07:58;5.70;99.90
45137;DHT22;30894;51.740;19.498;2023-01-15T18:10:55;5.50;99.90
45137;DHT22;30894;51.740;19.498;2023-01-15T18:13:26;5.50;99.90
45137;DHT22;30894;51.740;19.498;2023-01-15T18:15:53;5.40;99.90
45137;DHT22;30894;51.740;19.498;2023-01-15T18:18:20;5.40;99.90
45137;DHT22;30894;51.740;19.498;2023-01-15T18:20:47;5.40;99.90
45137;DHT22;30894;51.740;19.498;2023-01-15T18:23:43;5.40;99.90
45137;DHT22;30894;51.740;19.498;2023-01-15T18:26:10;5.30;99.90
45137;DHT22;30894;51.740;19.498;2023-01-15T18:28:43;5.30;99.90
45137;DHT22;30894;51.740;19.498;2023-01-15T18:31:46;5.30;99.90
45137;DHT22;30894;51.740;19.498;2023-01-15T18:34:16;5.30;99.90
45137;DHT22;30894;51.740;19.498;2023-01-15T18:37:03;5.30;99.90
45137;DHT22;30894;51.740;19.498;2023-01-15T18:39:29;5.20;99.90
45137;DHT22;30894;51.740;19.498;2023-01-15T18:41:59;5.30;99.90
45137;DHT22;30894;51.740;19.498;2023-01-15T18:44:25;5.20;99.90
45137;DHT22;30894;51.740;19.498;2023-01-15T18:47:12;5.20;99.90
45137;DHT22;30894;51.740;19.498;2023-01-15T18:49:43;5.20;99.90
45137;DHT22;30894;51.740;19.498;2023-01-15T18:52:15;5.20;99.90
45137;DHT22;30894;51.740;19.498;2023-01-15T18:55:00;5.20;99.90
45137;DHT22;30894;51.740;19.498;2023-01-15T18:57:32;5.20;99.90
45137;DHT22;30894;51.740;19.498;2023-01-15T18:59:59;5.20;99.90
45137;DHT22;30894;51.740;19.498;2023-01-15T19:02:32;5.10;99.90
45137;DHT22;30894;51.740;19.498;2023-01-15T19:04:58;5.20;99.90
45137;DHT22;30894;51.740;19.498;2023-01-15T19:07:25;5.10;99.90
45137;DHT22;30894;51.740;19.498;2023-01-15T19:09:52;5.10;99.90
45137;DHT22;30894;51.740;19.498;2023-01-15T19:12:19;5.10;99.90
45137;DHT22;30894;51.740;19.498;2023-01-15T19:14:46;5.00;99.90
45137;DHT22;30894;51.740;19.498;2023-01-15T19:17:31;5.00;99.90
45137;DHT22;30894;51.740;19.498;2023-01-15T19:20:17;5.00;99.90
45137;DHT22;30894;51.740;19.498;2023-01-15T19:23:20;5.00;99.90
45137;DHT22;30894;51.740;19.498;2023-01-15T19:26:13;5.00;99.90
45137;DHT22;30894;51.740;19.498;2023-01-15T19:28:45;5.00;99.90
45137;DHT22;30894;51.740;19.498;2023-01-15T19:31:11;5.00;99.90
45137;DHT22;30894;51.740;19.498;2023-01-15T19:33:56;5.00;99.90
45137;DHT22;30894;51.740;19.498;2023-01-15T19:36:24;5.00;99.90
45137;DHT22;30894;51.740;19.498;2023-01-15T19:38:50;5.00;99.90
45137;DHT22;30894;51.740;19.498;2023-01-15T19:41:16;4.90;99.90
45137;DHT22;30894;51.740;19.498;2023-01-15T19:44:01;4.90;99.90
45137;DHT22;30894;51.740;19.498;2023-01-15T19:46:47;5.00;99.90
45137;DHT22;30894;51.740;19.498;2023-01-15T19:49:45;4.90;99.90
45137;DHT22;30894;51.740;19.498;2023-01-15T19:52:29;4.80;99.90
45137;DHT22;30894;51.740;19.498;2023-01-15T19:55:05;4.90;99.90
45137;DHT22;30894;51.740;19.498;2023-01-15T19:57:36;4.80;99.90
45137;DHT22;30894;51.740;19.498;2023-01-15T20:00:05;4.80;99.90
45137;DHT22;30894;51.740;19.498;2023-01-15T20:02:35;4.80;99.90
45137;DHT22;30894;51.740;19.498;2023-01-15T20:05:04;4.70;99.90
45137;DHT22;30894;51.740;19.498;2023-01-15T20:07:32;4.70;99.90
45137;DHT22;30894;51.740;19.498;2023-01-15T20:10:01;4.80;99.90
45137;DHT22;30894;51.740;19.498;2023-01-15T20:12:28;4.80;99.90
45137;DHT22;30894;51.740;19.498;2023-01-15T20:15:16;4.80;99.90
45137;DHT22;30894;51.740;19.498;2023-01-15T20:17:58;4.70;99.90
45137;DHT22;30894;51.740;19.498;2023-01-15T20:21:11;4.70;99.90
45137;DHT22;30894;51.740;19.498;2023-01-15T20:24:00;4.70;99.90
45137;DHT22;30894;51.740;19.498;2023-01-15T20:26:28;4.70;99.90
45137;DHT22;30894;51.740;19.498;2023-01-15T20:28:58;4.70;99.90
45137;DHT22;30894;51.740;19.498;2023-01-15T20:31:31;4.70;99.90
45137;DHT22;30894;51.740;19.498;2023-01-15T20:34:01;4.70;99.90
45137;DHT22;30894;51.740;19.498;2023-01-15T20:36:27;4.70;99.90
45137;DHT22;30894;51.740;19.498;2023-01-15T20:38:59;4.60;99.90
45137;DHT22;30894;51.740;19.498;2023-01-15T20:41:29;4.70;99.90
45137;DHT22;30894;51.740;19.498;2023-01-15T20:44:17;4.70;99.90
45137;DHT22;30894;51.740;19.498;2023-01-15T20:47:02;4.70;99.90
45137;DHT22;30894;51.740;19.498;2023-01-15T20:49:50;4.70;99.90
45137;DHT22;30894;51.740;19.498;2023-01-15T20:52:19;4.80;99.90
45137;DHT22;30894;51.740;19.498;2023-01-15T20:55:03;4.70;99.90
45137;DHT22;30894;51.740;19.498;2023-01-15T20:57:38;4.80;99.90
45137;DHT22;30894;51.740;19.498;2023-01-15T21:00:09;4.80;99.90
45137;DHT22;30894;51.740;19.498;2023-01-15T21:02:40;4.90;99.90
45137;DHT22;30894;51.740;19.498;2023-01-15T21:05:07;4.90;99.90
45137;DHT22;30894;51.740;19.498;2023-01-15T21:07:35;4.90;99.90
45137;DHT22;30894;51.740;19.498;2023-01-15T21:10:04;4.90;99.90
45137;DHT22;30894;51.740;19.498;2023-01-15T21:12:33;4.80;99.90